Time;durP1;ratioP1;P1;durP2;ratioP2;P2;SDS_P1;SDS_P2;PMS_P1;PMS_P2;Temp;Humidity;BMP_temperature;BMP_pressure;BME280_temperature;BME280_humidity;BME280_pressure;Samples;Min_cycle;Max_cycle;Signal;HPM_P1;HPM_P2
2024/01/19 00:00:51;;;;;;;10.83;4.77;;;;;;;;;;5031475;28;20411;-63
2024/01/19 00:03:16;;;;;;;9.80;4.10;;;;;;;;;;5014621;28;20411;-63
2024/01/19 00:05:42;;;;;;;9.77;4.10;;;;;;;;;;5020708;28;20518;-63
2024/01/19 00:08:07;;;;;;;9.00;4.17;;;;;;;;;;5022092;28;20411;-63
2024/01/19 00:10:33;;;;;;;10.77;4.50;;;;;;;;;;5024218;28;20449;-63
2024/01/19 00:12:58;;;;;;;10.60;4.38;;;;;;;;;;5040754;28;20401;-63
2024/01/19 00:15:23;;;;;;;8.23;4.40;;;;;;;;;;5021790;28;20401;-63
2024/01/19 00:17:48;;;;;;;9.23;4.40;;;;;;;;;;5022597;28;20404;-63
2024/01/19 00:20:14;;;;;;;8.90;4.20;;;;;;;;;;5017973;28;20403;-62
2024/01/19 00:22:39;;;;;;;9.00;4.10;;;;;;;;;;5014413;28;20461;-63
2024/01/19 00:25:05;;;;;;;9.03;4.20;;;;;;;;;;5014242;28;20411;-63
2024/01/19 00:27:30;;;;;;;8.35;3.70;;;;;;;;;;5017278;28;20430;-63
2024/01/19 00:29:55;;;;;;;8.70;3.90;;;;;;;;;;5041747;28;20468;-63
2024/01/19 00:32:21;;;;;;;7.60;3.73;;;;;;;;;;5040219;28;20389;-63
2024/01/19 00:34:46;;;;;;;7.03;3.65;;;;;;;;;;5041497;28;20410;-63
2024/01/19 00:37:11;;;;;;;8.93;3.70;;;;;;;;;;5041355;28;21271;-63
2024/01/19 00:39:36;;;;;;;10.37;4.00;;;;;;;;;;5041334;28;20393;-63
2024/01/19 00:42:02;;;;;;;8.37;3.87;;;;;;;;;;5040460;28;20406;-63
2024/01/19 00:44:28;;;;;;;9.75;3.88;;;;;;;;;;5028095;28;20399;-63
2024/01/19 00:46:54;;;;;;;8.27;3.67;;;;;;;;;;5032768;28;20405;-63
2024/01/19 00:49:19;;;;;;;9.33;3.80;;;;;;;;;;5033878;28;20420;-64
2024/01/19 00:51:44;;;;;;;9.43;4.03;;;;;;;;;;5041400;28;20983;-64
2024/01/19 00:54:09;;;;;;;8.93;3.83;;;;;;;;;;5040710;28;20441;-64
2024/01/19 00:56:35;;;;;;;9.17;3.80;;;;;;;;;;5041216;28;20394;-63
2024/01/19 00:59:00;;;;;;;7.50;3.77;;;;;;;;;;5041227;28;20401;-63
2024/01/19 01:01:25;;;;;;;8.63;3.67;;;;;;;;;;5032449;28;20391;-64
2024/01/19 01:03:51;;;;;;;8.70;3.67;;;;;;;;;;5040835;28;20409;-64
2024/01/19 01:06:16;;;;;;;8.57;3.80;;;;;;;;;;5035152;28;20405;-64
2024/01/19 01:08:41;;;;;;;7.80;3.40;;;;;;;;;;5028447;28;20480;-64
2024/01/19 01:11:07;;;;;;;9.65;3.67;;;;;;;;;;5018645;28;20467;-64
2024/01/19 01:13:33;;;;;;;8.50;3.33;;;;;;;;;;5032877;28;20391;-64
2024/01/19 01:15:58;;;;;;;10.43;3.57;;;;;;;;;;5021214;28;20469;-63
2024/01/19 01:18:23;;;;;;;10.30;3.60;;;;;;;;;;5020639;28;20461;-64
2024/01/19 01:20:49;;;;;;;8.03;3.40;;;;;;;;;;5021792;28;20407;-64
2024/01/19 01:23:15;;;;;;;6.80;3.00;;;;;;;;;;5020196;28;20494;-64
2024/01/19 01:25:40;;;;;;;8.27;2.97;;;;;;;;;;5021717;28;20485;-63
2024/01/19 01:28:06;;;;;;;6.73;3.10;;;;;;;;;;5028627;28;20413;-64
2024/01/19 01:30:31;;;;;;;7.00;3.05;;;;;;;;;;5032622;28;20393;-64
2024/01/19 01:32:57;;;;;;;6.57;2.70;;;;;;;;;;5032845;28;20405;-64
2024/01/19 01:35:22;;;;;;;6.80;2.75;;;;;;;;;;5035548;28;20397;-64
2024/01/19 01:37:48;;;;;;;6.70;2.83;;;;;;;;;;5040382;28;21258;-64
2024/01/19 01:40:13;;;;;;;6.05;2.80;;;;;;;;;;5040122;28;20828;-64
2024/01/19 01:42:38;;;;;;;5.50;2.50;;;;;;;;;;5040848;28;20397;-64
2024/01/19 01:45:04;;;;;;;8.80;2.93;;;;;;;;;;5018316;28;20936;-64
2024/01/19 01:47:29;;;;;;;11.18;3.10;;;;;;;;;;5021019;28;20407;-64
2024/01/19 01:49:55;;;;;;;5.60;2.57;;;;;;;;;;5019594;28;20435;-64
2024/01/19 01:52:20;;;;;;;7.17;2.67;;;;;;;;;;5012724;28;20976;-64
2024/01/19 01:54:45;;;;;;;7.63;2.63;;;;;;;;;;5013008;28;20398;-64
2024/01/19 01:57:11;;;;;;;5.43;2.43;;;;;;;;;;5047891;28;20412;-64
2024/01/19 01:59:36;;;;;;;7.23;2.77;;;;;;;;;;5039785;28;20415;-64
2024/01/19 02:02:01;;;;;;;4.70;2.05;;;;;;;;;;5027421;28;20414;-64
2024/01/19 02:04:28;;;;;;;6.30;2.20;;;;;;;;;;5020204;28;21076;-64
2024/01/19 02:06:53;;;;;;;5.10;2.20;;;;;;;;;;5055347;28;20389;-64
2024/01/19 02:09:18;;;;;;;5.37;2.27;;;;;;;;;;5031084;28;20407;-64
2024/01/19 02:11:44;;;;;;;6.00;2.27;;;;;;;;;;5031224;28;20462;-64
2024/01/19 02:14:10;;;;;;;5.23;2.13;;;;;;;;;;5023642;28;20478;-64
2024/01/19 02:16:36;;;;;;;5.07;1.95;;;;;;;;;;5032704;28;20963;-64
2024/01/19 02:19:01;;;;;;;5.27;1.90;;;;;;;;;;5048400;28;20896;-64
2024/01/19 02:21:26;;;;;;;3.93;1.80;;;;;;;;;;5050336;28;20397;-64
2024/01/19 02:23:52;;;;;;;4.60;1.65;;;;;;;;;;5050759;28;20487;-64
2024/01/19 02:26:17;;;;;;;3.80;1.60;;;;;;;;;;5049596;28;20406;-64
2024/01/19 02:28:42;;;;;;;3.33;1.70;;;;;;;;;;5050247;28;20401;-64
2024/01/19 02:31:07;;;;;;;4.50;1.90;;;;;;;;;;5049847;28;20948;-64
2024/01/19 02:33:33;;;;;;;3.55;1.50;;;;;;;;;;5049982;28;20404;-64
2024/01/19 02:35:58;;;;;;;5.00;1.80;;;;;;;;;;5046195;28;20416;-64
2024/01/19 02:38:23;;;;;;;4.77;1.50;;;;;;;;;;5013144;28;20421;-65
2024/01/19 02:40:49;;;;;;;3.30;1.33;;;;;;;;;;5038299;28;20414;-64
2024/01/19 02:43:14;;;;;;;3.23;1.50;;;;;;;;;;5039841;28;20405;-64
2024/01/19 02:45:39;;;;;;;3.37;1.60;;;;;;;;;;5024980;28;20792;-64
2024/01/19 02:48:05;;;;;;;4.27;1.70;;;;;;;;;;5019218;28;20465;-64
2024/01/19 02:50:30;;;;;;;3.33;1.60;;;;;;;;;;5020980;28;20456;-64
2024/01/19 02:52:55;;;;;;;3.65;1.70;;;;;;;;;;5039977;28;20896;-64
2024/01/19 02:55:20;;;;;;;3.90;1.40;;;;;;;;;;5037238;28;20385;-64
2024/01/19 02:57:46;;;;;;;4.57;1.83;;;;;;;;;;5035652;28;20760;-64
2024/01/19 03:00:11;;;;;;;4.00;1.70;;;;;;;;;;5034830;28;20485;-64
2024/01/19 03:02:36;;;;;;;3.22;1.30;;;;;;;;;;5021993;28;20391;-64
2024/01/19 03:05:02;;;;;;;3.30;1.47;;;;;;;;;;5023936;28;20399;-64
2024/01/19 03:07:27;;;;;;;2.17;1.20;;;;;;;;;;5023425;28;20941;-64
2024/01/19 03:09:52;;;;;;;3.80;1.43;;;;;;;;;;5024115;28;20510;-64
2024/01/19 03:12:18;;;;;;;3.57;1.57;;;;;;;;;;5023290;28;20396;-64
2024/01/19 03:14:43;;;;;;;3.37;1.33;;;;;;;;;;5023503;28;20403;-64
2024/01/19 03:17:08;;;;;;;3.13;1.60;;;;;;;;;;5021102;28;20516;-64
2024/01/19 03:19:33;;;;;;;3.43;1.50;;;;;;;;;;5016058;28;20954;-64
2024/01/19 03:21:59;;;;;;;4.22;1.55;;;;;;;;;;5026649;28;20422;-64
2024/01/19 03:24:24;;;;;;;2.27;1.30;;;;;;;;;;5017220;28;20451;-64
2024/01/19 03:26:49;;;;;;;3.17;1.67;;;;;;;;;;5023472;28;20991;-64
2024/01/19 03:29:15;;;;;;;4.27;1.90;;;;;;;;;;5041654;28;20413;-64
2024/01/19 03:31:41;;;;;;;3.77;1.80;;;;;;;;;;5042758;28;20913;-64
2024/01/19 03:34:06;;;;;;;4.80;2.00;;;;;;;;;;5042573;28;20509;-64
2024/01/19 03:36:31;;;;;;;3.47;1.70;;;;;;;;;;5042784;28;20477;-64
2024/01/19 03:38:57;;;;;;;4.87;2.00;;;;;;;;;;5042653;28;20401;-64
2024/01/19 03:41:22;;;;;;;5.37;2.10;;;;;;;;;;5034620;28;21256;-64
2024/01/19 03:43:47;;;;;;;6.23;2.40;;;;;;;;;;5014837;28;20418;-64
2024/01/19 03:46:12;;;;;;;4.90;2.40;;;;;;;;;;5015283;28;20407;-64
2024/01/19 03:48:38;;;;;;;6.60;3.00;;;;;;;;;;5021792;28;20406;-64
2024/01/19 03:51:03;;;;;;;4.83;2.80;;;;;;;;;;5022057;28;20407;-64
2024/01/19 03:53:29;;;;;;;5.72;2.97;;;;;;;;;;5023387;28;20948;-64
2024/01/19 03:55:54;;;;;;;6.90;2.83;;;;;;;;;;5023170;28;20391;-64
2024/01/19 03:58:19;;;;;;;6.10;3.10;;;;;;;;;;5022048;28;21759;-64
2024/01/19 04:00:44;;;;;;;7.07;3.23;;;;;;;;;;5022897;28;20407;-64
2024/01/19 04:03:10;;;;;;;6.50;2.90;;;;;;;;;;5037480;28;20404;-64
2024/01/19 04:05:35;;;;;;;7.93;3.33;;;;;;;;;;5033189;28;20409;-64
2024/01/19 04:08:01;;;;;;;6.77;3.00;;;;;;;;;;5033751;28;20401;-64
2024/01/19 04:10:27;;;;;;;9.05;3.60;;;;;;;;;;5019900;28;20394;-64
2024/01/19 04:12:52;;;;;;;8.30;3.83;;;;;;;;;;5032592;28;20899;-64
2024/01/19 04:15:17;;;;;;;6.90;3.70;;;;;;;;;;5022220;28;20472;-64
2024/01/19 04:17:43;;;;;;;6.43;3.50;;;;;;;;;;5022044;28;20507;-64
2024/01/19 04:20:08;;;;;;;5.97;3.50;;;;;;;;;;5022201;28;20944;-64
2024/01/19 04:22:33;;;;;;;8.70;3.73;;;;;;;;;;5022057;28;20403;-64
2024/01/19 04:24:59;;;;;;;7.13;3.97;;;;;;;;;;5039831;28;21123;-64
2024/01/19 04:27:24;;;;;;;8.87;3.80;;;;;;;;;;5024655;28;20403;-64
2024/01/19 04:29:49;;;;;;;8.20;4.10;;;;;;;;;;5014586;28;20410;-64
2024/01/19 04:32:16;;;;;;;7.68;4.22;;;;;;;;;;5014143;28;21471;-64
2024/01/19 04:34:41;;;;;;;7.45;3.70;;;;;;;;;;5022150;28;20394;-64
2024/01/19 04:37:07;;;;;;;8.37;3.60;;;;;;;;;;5021885;28;20399;-64
2024/01/19 04:39:32;;;;;;;6.93;3.50;;;;;;;;;;5041115;28;20872;-64
2024/01/19 04:41:57;;;;;;;6.47;3.20;;;;;;;;;;5041764;28;20500;-64
2024/01/19 04:44:23;;;;;;;8.77;3.30;;;;;;;;;;5036315;28;20399;-64
2024/01/19 04:46:48;;;;;;;8.40;3.60;;;;;;;;;;5021723;28;20767;-64
2024/01/19 04:49:13;;;;;;;7.47;3.53;;;;;;;;;;5029449;28;20415;-64
2024/01/19 04:51:38;;;;;;;7.77;4.03;;;;;;;;;;5033433;28;20398;-64
2024/01/19 04:54:05;;;;;;;9.43;4.00;;;;;;;;;;5032539;28;21276;-64
2024/01/19 04:56:30;;;;;;;7.07;3.60;;;;;;;;;;5043610;28;20833;-64
2024/01/19 04:58:56;;;;;;;7.03;3.70;;;;;;;;;;5050562;28;20896;-64
2024/01/19 05:01:21;;;;;;;7.28;3.75;;;;;;;;;;5050473;28;20386;-64
2024/01/19 05:03:46;;;;;;;7.53;3.30;;;;;;;;;;5051581;28;20404;-64
2024/01/19 05:06:13;;;;;;;9.47;3.97;;;;;;;;;;5051172;28;20394;-63
2024/01/19 05:08:38;;;;;;;9.48;3.95;;;;;;;;;;5050582;28;20413;-64
2024/01/19 05:11:03;;;;;;;7.10;3.87;;;;;;;;;;5044984;28;20394;-64
2024/01/19 05:13:29;;;;;;;9.03;4.40;;;;;;;;;;5019695;28;20881;-64
2024/01/19 05:15:54;;;;;;;9.85;4.07;;;;;;;;;;5050605;28;20934;-64
2024/01/19 05:18:21;;;;;;;6.90;3.70;;;;;;;;;;5050479;28;20404;-64
2024/01/19 05:20:46;;;;;;;7.47;3.53;;;;;;;;;;5050664;28;20417;-64
2024/01/19 05:23:11;;;;;;;7.50;3.80;;;;;;;;;;5027273;28;20410;-64
2024/01/19 05:25:37;;;;;;;10.33;4.40;;;;;;;;;;5037212;28;20462;-64
2024/01/19 05:28:02;;;;;;;8.00;3.73;;;;;;;;;;5040008;28;20467;-64
2024/01/19 05:30:27;;;;;;;8.80;4.20;;;;;;;;;;5040730;28;20934;-64
2024/01/19 05:32:53;;;;;;;7.63;4.30;;;;;;;;;;5040837;28;20401;-64
2024/01/19 05:35:18;;;;;;;7.93;4.10;;;;;;;;;;5039078;28;20404;-64
2024/01/19 05:37:43;;;;;;;7.77;3.80;;;;;;;;;;5032887;28;20393;-64
2024/01/19 05:40:09;;;;;;;7.97;4.00;;;;;;;;;;5032388;28;20408;-64
2024/01/19 05:42:34;;;;;;;7.40;4.10;;;;;;;;;;5033202;28;20465;-64
2024/01/19 05:44:59;;;;;;;7.43;3.83;;;;;;;;;;5018794;28;20731;-64
2024/01/19 05:47:25;;;;;;;8.17;4.20;;;;;;;;;;5020423;28;20760;-64
2024/01/19 05:49:50;;;;;;;9.40;4.57;;;;;;;;;;5020301;28;20403;-64
2024/01/19 05:52:15;;;;;;;9.13;3.90;;;;;;;;;;5020523;28;20407;-64
2024/01/19 05:54:41;;;;;;;8.63;4.50;;;;;;;;;;5040341;28;20415;-64
2024/01/19 05:57:08;;;;;;;8.73;4.10;;;;;;;;;;5039591;28;20412;-64
2024/01/19 05:59:34;;;;;;;8.40;3.90;;;;;;;;;;5019260;28;21114;-64
2024/01/19 06:02:01;;;;;;;9.18;4.00;;;;;;;;;;5035036;28;20766;-64
2024/01/19 06:04:26;;;;;;;6.75;3.78;;;;;;;;;;5031615;28;20732;-64
2024/01/19 06:06:52;;;;;;;6.90;3.58;;;;;;;;;;5037818;28;20873;-64
2024/01/19 06:09:17;;;;;;;9.10;4.13;;;;;;;;;;5031294;28;20461;-64
2024/01/19 06:11:42;;;;;;;9.03;4.27;;;;;;;;;;5019901;28;20878;-64
2024/01/19 06:14:07;;;;;;;6.97;3.80;;;;;;;;;;5020475;28;20446;-64
2024/01/19 06:16:33;;;;;;;7.80;4.40;;;;;;;;;;5020653;28;20395;-64
2024/01/19 06:18:58;;;;;;;7.63;3.77;;;;;;;;;;5035216;28;20388;-64
2024/01/19 06:21:24;;;;;;;8.47;3.70;;;;;;;;;;5016530;28;20769;-64
2024/01/19 06:23:49;;;;;;;7.47;3.80;;;;;;;;;;5028474;28;20478;-64
2024/01/19 06:26:15;;;;;;;8.30;3.60;;;;;;;;;;5012060;28;20434;-64
2024/01/19 06:28:41;;;;;;;7.65;3.60;;;;;;;;;;5015796;28;20421;-64
2024/01/19 06:31:08;;;;;;;6.40;3.35;;;;;;;;;;5043005;28;20409;-64
2024/01/19 06:33:33;;;;;;;7.00;3.70;;;;;;;;;;5043856;28;20385;-64
2024/01/19 06:35:58;;;;;;;6.47;3.40;;;;;;;;;;5044280;28;20405;-64
2024/01/19 06:38:24;;;;;;;7.30;3.90;;;;;;;;;;5037168;28;20407;-64
2024/01/19 06:40:49;;;;;;;9.17;3.40;;;;;;;;;;5016766;28;20409;-63
2024/01/19 06:43:15;;;;;;;7.45;3.40;;;;;;;;;;5016090;28;20402;-63
2024/01/19 06:45:40;;;;;;;6.60;2.87;;;;;;;;;;5017725;28;20414;-63
2024/01/19 06:48:05;;;;;;;7.30;3.13;;;;;;;;;;5023607;28;20418;-63
2024/01/19 06:50:31;;;;;;;8.00;3.63;;;;;;;;;;5024299;28;20407;-63
2024/01/19 06:52:59;;;;;;;7.00;2.90;;;;;;;;;;5035805;28;20404;-63
2024/01/19 06:55:24;;;;;;;6.00;2.83;;;;;;;;;;5043172;28;20393;-63
2024/01/19 06:57:50;;;;;;;6.50;3.50;;;;;;;;;;5042703;28;20401;-63
2024/01/19 07:00:18;;;;;;;5.40;3.20;;;;;;;;;;5022613;28;20409;-63
2024/01/19 07:02:43;;;;;;;6.60;3.55;;;;;;;;;;5018229;28;20450;-63
2024/01/19 07:05:08;;;;;;;7.53;3.80;;;;;;;;;;5015543;28;20486;-64
2024/01/19 07:07:34;;;;;;;5.90;3.57;;;;;;;;;;5014272;28;20414;-63
2024/01/19 07:09:59;;;;;;;7.60;3.60;;;;;;;;;;5023227;28;20403;-63
2024/01/19 07:12:24;;;;;;;6.33;3.80;;;;;;;;;;5023352;28;20728;-63
2024/01/19 07:14:50;;;;;;;7.53;4.13;;;;;;;;;;5025820;28;21330;-63
2024/01/19 07:17:15;;;;;;;8.55;4.35;;;;;;;;;;5042104;28;20441;-63
2024/01/19 07:19:40;;;;;;;7.80;4.53;;;;;;;;;;5053394;28;20757;-62
2024/01/19 07:22:06;;;;;;;8.93;4.90;;;;;;;;;;5052227;28;20952;-62
2024/01/19 07:24:32;;;;;;;9.67;5.17;;;;;;;;;;5053626;28;20421;-62
2024/01/19 07:26:58;;;;;;;12.65;7.00;;;;;;;;;;5053582;28;20398;-62
2024/01/19 07:29:23;;;;;;;12.40;6.15;;;;;;;;;;5051813;28;20791;-61
2024/01/19 07:31:48;;;;;;;11.47;6.03;;;;;;;;;;5052021;28;20408;-61
2024/01/19 07:34:13;;;;;;;16.13;7.13;;;;;;;;;;5050089;28;20824;-62
2024/01/19 07:36:39;;;;;;;10.93;6.80;;;;;;;;;;5051891;28;20400;-62
2024/01/19 07:39:04;;;;;;;10.45;7.20;;;;;;;;;;5051517;28;20401;-62
2024/01/19 07:41:29;;;;;;;10.30;7.03;;;;;;;;;;5052295;28;20397;-62
2024/01/19 07:43:55;;;;;;;9.73;6.80;;;;;;;;;;5052347;28;20877;-62
2024/01/19 07:46:20;;;;;;;10.38;6.55;;;;;;;;;;5052077;28;20389;-62
2024/01/19 07:48:46;;;;;;;11.97;7.50;;;;;;;;;;5034112;28;21011;-61
2024/01/19 07:51:11;;;;;;;15.25;8.50;;;;;;;;;;5051802;28;20443;-62
2024/01/19 07:53:36;;;;;;;10.90;7.03;;;;;;;;;;5052550;28;20390;-62
2024/01/19 07:56:02;;;;;;;11.03;6.90;;;;;;;;;;5051457;28;20928;-62
2024/01/19 07:58:27;;;;;;;16.77;7.90;;;;;;;;;;5051837;28;20401;-62
2024/01/19 08:00:52;;;;;;;11.20;7.73;;;;;;;;;;5052526;28;20402;-61
2024/01/19 08:03:18;;;;;;;9.07;6.80;;;;;;;;;;5051456;28;20923;-62
2024/01/19 08:05:43;;;;;;;11.07;7.07;;;;;;;;;;5052203;28;20397;-61
2024/01/19 08:08:08;;;;;;;12.23;7.77;;;;;;;;;;5048355;28;20765;-62
2024/01/19 08:10:35;;;;;;;14.13;8.83;;;;;;;;;;5051375;28;20389;-62
2024/01/19 08:13:00;;;;;;;15.70;10.50;;;;;;;;;;5051604;28;20532;-62
2024/01/19 08:15:26;;;;;;;18.45;11.82;;;;;;;;;;5050879;28;20814;-62
2024/01/19 08:17:51;;;;;;;11.50;8.60;;;;;;;;;;5033583;28;20401;-61
2024/01/19 08:20:17;;;;;;;13.50;9.57;;;;;;;;;;5051672;28;20410;-62
2024/01/19 08:22:42;;;;;;;14.90;9.47;;;;;;;;;;5052147;28;20863;-62
2024/01/19 08:25:08;;;;;;;12.13;8.57;;;;;;;;;;5032946;28;20952;-62
2024/01/19 08:27:34;;;;;;;12.38;9.30;;;;;;;;;;5052202;28;20408;-62
2024/01/19 08:29:59;;;;;;;13.23;8.30;;;;;;;;;;5052166;28;20757;-62
2024/01/19 08:32:25;;;;;;;14.50;10.67;;;;;;;;;;5051211;28;20392;-62
2024/01/19 08:34:50;;;;;;;14.70;9.37;;;;;;;;;;5052119;28;20816;-62
2024/01/19 08:37:16;;;;;;;13.40;8.10;;;;;;;;;;5051704;28;20401;-62
2024/01/19 08:39:41;;;;;;;14.40;8.93;;;;;;;;;;5050701;28;20393;-62
2024/01/19 08:42:06;;;;;;;12.03;7.53;;;;;;;;;;5051550;28;20489;-62
2024/01/19 08:44:32;;;;;;;12.70;8.47;;;;;;;;;;5052005;28;20464;-61
2024/01/19 08:46:57;;;;;;;14.03;8.40;;;;;;;;;;5051326;28;20390;-61
2024/01/19 08:49:23;;;;;;;12.40;7.97;;;;;;;;;;5051363;28;20409;-62
2024/01/19 08:51:50;;;;;;;15.67;12.43;;;;;;;;;;5050699;28;20457;-62
2024/01/19 08:54:16;;;;;;;22.92;20.17;;;;;;;;;;5050617;28;20473;-61
2024/01/19 08:56:41;;;;;;;38.40;34.60;;;;;;;;;;5051867;28;20843;-62
2024/01/19 08:59:06;;;;;;;31.07;27.90;;;;;;;;;;5050574;28;20466;-62
2024/01/19 09:01:34;;;;;;;24.03;21.53;;;;;;;;;;5051525;28;20397;-62
2024/01/19 09:03:59;;;;;;;20.02;16.55;;;;;;;;;;5051256;28;20496;-62
2024/01/19 09:06:24;;;;;;;19.00;14.30;;;;;;;;;;5050252;28;20461;-62
2024/01/19 09:08:49;;;;;;;20.20;17.73;;;;;;;;;;5050409;28;20800;-62
2024/01/19 09:11:15;;;;;;;22.07;17.17;;;;;;;;;;5050544;28;20390;-61
2024/01/19 09:13:40;;;;;;;15.07;8.73;;;;;;;;;;5050575;28;20410;-61
2024/01/19 09:16:11;;;;;;;18.43;13.60;;;;;;;;;;5050920;28;20500;-64
2024/01/19 09:18:36;;;;;;;14.20;11.73;;;;;;;;;;5059561;28;20390;-61
2024/01/19 09:21:02;;;;;;;14.77;8.77;;;;;;;;;;5049855;28;20394;-62
2024/01/19 09:23:27;;;;;;;13.43;8.45;;;;;;;;;;5051686;28;20492;-61
2024/01/19 09:25:53;;;;;;;11.13;7.80;;;;;;;;;;5050708;28;20455;-62
2024/01/19 09:28:18;;;;;;;11.63;8.00;;;;;;;;;;5049719;28;20409;-61
2024/01/19 09:30:44;;;;;;;14.37;8.03;;;;;;;;;;5051247;28;20761;-62
2024/01/19 09:33:09;;;;;;;15.57;8.50;;;;;;;;;;5050169;28;20436;-63
2024/01/19 09:35:34;;;;;;;14.77;9.03;;;;;;;;;;5032171;28;20412;-63
2024/01/19 09:37:59;;;;;;;16.77;10.30;;;;;;;;;;5050659;28;20404;-60
2024/01/19 09:40:25;;;;;;;17.07;10.73;;;;;;;;;;5050386;28;20393;-61
2024/01/19 09:42:53;;;;;;;17.50;11.97;;;;;;;;;;5032544;28;20420;-61
2024/01/19 09:45:19;;;;;;;18.77;11.15;;;;;;;;;;5049355;28;20413;-61
2024/01/19 09:47:58;;;;;;;18.45;10.82;;;;;;;;;;5048209;28;20713;-61
2024/01/19 09:50:25;;;;;;;17.50;11.00;;;;;;;;;;5029330;28;20748;-62
2024/01/19 09:52:56;;;;;;;16.25;10.80;;;;;;;;;;5050909;28;20393;-62
2024/01/19 09:55:21;;;;;;;16.77;10.30;;;;;;;;;;5032070;28;20394;-62
2024/01/19 09:57:47;;;;;;;19.43;12.77;;;;;;;;;;5032825;28;20397;-62
2024/01/19 10:00:13;;;;;;;19.83;13.00;;;;;;;;;;5032822;28;20413;-62
2024/01/19 10:02:41;;;;;;;20.65;12.88;;;;;;;;;;5050301;28;20412;-62
2024/01/19 10:05:07;;;;;;;18.03;11.50;;;;;;;;;;5049482;28;20486;-62
2024/01/19 10:07:32;;;;;;;16.42;10.52;;;;;;;;;;5050715;28;20999;-60
2024/01/19 10:09:57;;;;;;;19.00;11.73;;;;;;;;;;5049550;28;20402;-61
2024/01/19 10:12:22;;;;;;;17.63;11.63;;;;;;;;;;5050214;28;20390;-61
2024/01/19 10:14:48;;;;;;;17.60;11.18;;;;;;;;;;5032929;28;20906;-61
2024/01/19 10:17:14;;;;;;;17.60;10.93;;;;;;;;;;5049493;28;20397;-61
2024/01/19 10:19:39;;;;;;;17.58;11.93;;;;;;;;;;5050317;28;20402;-61
2024/01/19 10:22:23;;;;;;;19.10;11.77;;;;;;;;;;5032032;28;20481;-62
2024/01/19 10:25:04;;;;;;;20.70;12.73;;;;;;;;;;5049536;28;20412;-61
2024/01/19 10:27:39;;;;;;;19.17;13.00;;;;;;;;;;5049576;28;20433;-62
2024/01/19 10:30:18;;;;;;;17.30;12.20;;;;;;;;;;5049989;28;20397;-62
2024/01/19 10:32:44;;;;;;;18.08;12.50;;;;;;;;;;5050246;28;20406;-62
2024/01/19 10:35:11;;;;;;;16.95;10.82;;;;;;;;;;5049967;28;20750;-62
2024/01/19 10:37:36;;;;;;;18.02;11.85;;;;;;;;;;5049719;28;20855;-62
2024/01/19 10:40:16;;;;;;;15.13;10.17;;;;;;;;;;5031922;28;20909;-63
2024/01/19 10:42:41;;;;;;;17.00;11.05;;;;;;;;;;5050084;28;20393;-63
2024/01/19 10:45:16;;;;;;;15.30;10.13;;;;;;;;;;5048730;28;20480;-63
2024/01/19 10:47:42;;;;;;;15.23;9.93;;;;;;;;;;5050150;28;20401;-62
2024/01/19 10:50:10;;;;;;;15.80;9.33;;;;;;;;;;5049889;28;20475;-63
2024/01/19 10:52:36;;;;;;;16.90;9.80;;;;;;;;;;5049367;28;20423;-62
2024/01/19 10:55:01;;;;;;;13.43;9.47;;;;;;;;;;5015400;28;20820;-63
2024/01/19 10:57:26;;;;;;;12.87;8.53;;;;;;;;;;5049831;28;20390;-62
2024/01/19 10:59:52;;;;;;;14.00;7.77;;;;;;;;;;5049162;28;20480;-61
2024/01/19 11:02:17;;;;;;;13.25;7.15;;;;;;;;;;5049578;28;20839;-62
2024/01/19 11:04:44;;;;;;;13.03;8.10;;;;;;;;;;5032581;28;20477;-63
2024/01/19 11:07:09;;;;;;;11.68;7.03;;;;;;;;;;5047792;28;20429;-63
2024/01/19 11:09:35;;;;;;;13.20;7.13;;;;;;;;;;5049118;28;20429;-62
2024/01/19 11:12:00;;;;;;;10.27;6.67;;;;;;;;;;5049994;28;20405;-62
2024/01/19 11:14:26;;;;;;;13.03;9.23;;;;;;;;;;5031022;28;20905;-62
2024/01/19 11:16:53;;;;;;;11.55;6.85;;;;;;;;;;5052863;28;20889;-62
2024/01/19 11:19:18;;;;;;;41.63;23.45;;;;;;;;;;5053138;28;20873;-62
2024/01/19 11:21:44;;;;;;;15.73;8.30;;;;;;;;;;5052840;28;20416;-62
2024/01/19 11:24:09;;;;;;;17.37;9.03;;;;;;;;;;5052874;28;20471;-62
2024/01/19 11:26:36;;;;;;;9.53;6.10;;;;;;;;;;5035278;28;20382;-62
2024/01/19 11:29:02;;;;;;;11.75;5.13;;;;;;;;;;5034522;28;20420;-63
2024/01/19 11:31:29;;;;;;;12.20;5.30;;;;;;;;;;5053440;28;20837;-62
2024/01/19 11:33:54;;;;;;;9.02;4.78;;;;;;;;;;5052759;28;20390;-62
2024/01/19 11:36:33;;;;;;;7.80;4.20;;;;;;;;;;5052972;28;20392;-62
2024/01/19 11:38:58;;;;;;;7.88;4.20;;;;;;;;;;5052977;28;20417;-62
2024/01/19 11:41:46;;;;;;;9.98;4.40;;;;;;;;;;5032896;28;20841;-62
2024/01/19 11:44:31;;;;;;;7.88;4.10;;;;;;;;;;5047397;28;20389;-62
2024/01/19 11:46:56;;;;;;;9.95;4.10;;;;;;;;;;5052671;28;20406;-61
2024/01/19 11:49:29;;;;;;;9.57;4.30;;;;;;;;;;5050388;28;20409;-61
2024/01/19 11:51:54;;;;;;;9.75;4.30;;;;;;;;;;5052862;28;20454;-61
2024/01/19 11:54:26;;;;;;;9.03;3.90;;;;;;;;;;5051829;28;20768;-61
2024/01/19 11:56:51;;;;;;;8.83;4.00;;;;;;;;;;5052228;28;20903;-61
2024/01/19 11:59:17;;;;;;;7.63;3.92;;;;;;;;;;5059532;28;20491;-61
2024/01/19 12:01:42;;;;;;;10.27;4.57;;;;;;;;;;5034380;28;20488;-60
2024/01/19 12:04:08;;;;;;;8.47;3.70;;;;;;;;;;5034398;28;20904;-63
2024/01/19 12:06:33;;;;;;;10.43;4.20;;;;;;;;;;5052876;28;20454;-62
2024/01/19 12:09:00;;;;;;;8.07;3.87;;;;;;;;;;5033906;28;20420;-62
2024/01/19 12:11:25;;;;;;;9.93;3.90;;;;;;;;;;5052199;28;20471;-62
2024/01/19 12:13:50;;;;;;;8.83;3.33;;;;;;;;;;5052534;28;20836;-61
2024/01/19 12:16:19;;;;;;;7.63;3.70;;;;;;;;;;5050343;28;20392;-62
2024/01/19 12:18:44;;;;;;;7.53;3.38;;;;;;;;;;5052227;28;20408;-62
2024/01/19 12:21:09;;;;;;;7.03;3.13;;;;;;;;;;5034256;28;20401;-62
2024/01/19 12:23:35;;;;;;;8.23;3.45;;;;;;;;;;5029852;28;20835;-61
2024/01/19 12:26:01;;;;;;;7.28;3.47;;;;;;;;;;5032063;28;20396;-62
2024/01/19 12:28:26;;;;;;;10.03;4.23;;;;;;;;;;5031189;28;20406;-61
2024/01/19 12:30:52;;;;;;;8.25;3.55;;;;;;;;;;5031588;28;20790;-62
2024/01/19 12:33:21;;;;;;;11.35;4.10;;;;;;;;;;5031918;28;20434;-62
2024/01/19 12:35:46;;;;;;;8.48;3.50;;;;;;;;;;5029703;28;20925;-62
2024/01/19 12:38:12;;;;;;;6.77;3.17;;;;;;;;;;5030962;28;20399;-62
2024/01/19 12:40:40;;;;;;;8.95;3.40;;;;;;;;;;5031221;28;20403;-62
2024/01/19 12:43:06;;;;;;;7.20;3.30;;;;;;;;;;5031973;28;20395;-62
2024/01/19 12:45:31;;;;;;;9.10;3.00;;;;;;;;;;5031323;28;20396;-62
2024/01/19 12:47:59;;;;;;;8.45;3.45;;;;;;;;;;5031753;28;20814;-62
2024/01/19 12:50:25;;;;;;;9.45;3.30;;;;;;;;;;5031558;28;20411;-62
2024/01/19 12:52:50;;;;;;;8.03;3.20;;;;;;;;;;5030985;28;20426;-62
2024/01/19 12:55:16;;;;;;;6.80;2.90;;;;;;;;;;5031433;28;20752;-61
2024/01/19 12:57:48;;;;;;;10.00;2.73;;;;;;;;;;5030486;28;20402;-62
2024/01/19 13:00:14;;;;;;;8.15;2.85;;;;;;;;;;5030099;28;20411;-62
2024/01/19 13:02:40;;;;;;;9.68;2.90;;;;;;;;;;5047835;28;20401;-62
2024/01/19 13:05:07;;;;;;;8.00;2.75;;;;;;;;;;5050794;28;20481;-63
2024/01/19 13:07:33;;;;;;;9.80;3.05;;;;;;;;;;5050043;28;20401;-62
2024/01/19 13:10:00;;;;;;;7.70;2.80;;;;;;;;;;5050130;28;20414;-62
2024/01/19 13:12:25;;;;;;;13.18;4.00;;;;;;;;;;5050294;28;20397;-62
2024/01/19 13:14:50;;;;;;;27.80;7.20;;;;;;;;;;5034531;28;20399;-62
2024/01/19 13:17:22;;;;;;;12.30;3.47;;;;;;;;;;5030702;28;20406;-62
2024/01/19 13:19:47;;;;;;;8.63;2.83;;;;;;;;;;5030634;28;20407;-62
2024/01/19 13:22:13;;;;;;;10.37;3.20;;;;;;;;;;5038040;28;20428;-62
2024/01/19 13:24:38;;;;;;;8.60;3.00;;;;;;;;;;5051388;28;20749;-62
2024/01/19 13:27:04;;;;;;;9.07;3.27;;;;;;;;;;5050101;28;20451;-62
2024/01/19 13:29:29;;;;;;;8.90;3.10;;;;;;;;;;5050892;28;20389;-62
2024/01/19 13:31:55;;;;;;;9.23;3.00;;;;;;;;;;5066147;28;20429;-62
2024/01/19 13:34:26;;;;;;;8.77;3.30;;;;;;;;;;5069812;28;20380;-62
2024/01/19 13:36:51;;;;;;;9.75;3.20;;;;;;;;;;5070822;28;20387;-62
2024/01/19 13:39:17;;;;;;;8.60;3.00;;;;;;;;;;5070452;28;20399;-62
2024/01/19 13:41:42;;;;;;;12.07;3.00;;;;;;;;;;5070397;28;20907;-62
2024/01/19 13:44:07;;;;;;;10.32;3.25;;;;;;;;;;5067566;28;20408;-62
2024/01/19 13:46:33;;;;;;;11.60;3.10;;;;;;;;;;5050653;28;20385;-62
2024/01/19 13:48:58;;;;;;;8.63;3.10;;;;;;;;;;5049704;28;20410;-62
2024/01/19 13:51:23;;;;;;;8.33;3.30;;;;;;;;;;5050289;28;20386;-62
2024/01/19 13:53:49;;;;;;;8.07;2.85;;;;;;;;;;5051000;28;20401;-62
2024/01/19 13:56:14;;;;;;;8.93;3.43;;;;;;;;;;5049526;28;20393;-62
2024/01/19 13:58:40;;;;;;;6.78;2.83;;;;;;;;;;5050828;28;20409;-62
2024/01/19 14:01:06;;;;;;;10.10;3.53;;;;;;;;;;5049767;28;20397;-62
2024/01/19 14:03:31;;;;;;;9.50;2.90;;;;;;;;;;5049884;28;20420;-62
2024/01/19 14:05:57;;;;;;;8.40;3.23;;;;;;;;;;5050895;28;20897;-62
2024/01/19 14:08:22;;;;;;;9.10;2.93;;;;;;;;;;5049033;28;20832;-62
2024/01/19 14:10:49;;;;;;;8.37;3.20;;;;;;;;;;5050635;28;20397;-62
2024/01/19 14:13:14;;;;;;;8.88;2.72;;;;;;;;;;5050256;28;20393;-62
2024/01/19 14:15:40;;;;;;;7.97;2.83;;;;;;;;;;5049500;28;20488;-62
2024/01/19 14:18:05;;;;;;;8.50;2.80;;;;;;;;;;5050115;28;20423;-62
2024/01/19 14:20:30;;;;;;;8.67;3.10;;;;;;;;;;5050567;28;20912;-62
2024/01/19 14:22:55;;;;;;;8.23;3.15;;;;;;;;;;5049405;28;20451;-62
2024/01/19 14:25:21;;;;;;;9.23;2.83;;;;;;;;;;5050350;28;20473;-62
2024/01/19 14:27:46;;;;;;;8.87;3.07;;;;;;;;;;5050652;28;20848;-62
2024/01/19 14:30:11;;;;;;;8.57;3.10;;;;;;;;;;5049035;28;20406;-62